Time;durP1;ratioP1;P1;durP2;ratioP2;P2;SDS_P1;SDS_P2;PMS_P1;PMS_P2;Temp;Humidity;BMP_temperature;BMP_pressure;BME280_temperature;BME280_humidity;BME280_pressure;Samples;Min_cycle;Max_cycle;Signal;HPM_P1;HPM_P2
2024/01/23 00:00:09;;;;;;;44.07;26.97;;;;;;;-6.85;61.49;94469.56;515378;28;866;-64
2024/01/23 00:00:24;;;;;;;36.17;21.95;;;;;;;-6.87;61.60;94471.91;515371;28;889;-64
2024/01/23 00:00:40;;;;;;;29.63;18.97;;;;;;;-6.92;61.72;94477.75;515559;28;850;-64
2024/01/23 00:00:55;;;;;;;30.63;19.30;;;;;;;-7.00;62.01;94473.69;515536;28;802;-64
2024/01/23 00:01:11;;;;;;;32.58;20.27;;;;;;;-6.99;62.40;94470.59;515527;28;826;-64
2024/01/23 00:01:26;;;;;;;34.70;21.20;;;;;;;-6.96;61.87;94472.44;515487;28;826;-64
2024/01/23 00:01:43;;;;;;;36.10;23.30;;;;;;;-6.91;61.81;94473.91;515433;28;882;-64
2024/01/23 00:01:59;;;;;;;41.13;25.25;;;;;;;-6.85;61.97;94468.81;515533;28;921;-64
2024/01/23 00:02:15;;;;;;;44.03;26.33;;;;;;;-6.80;61.85;94477.16;515528;28;972;-64
2024/01/23 00:02:30;;;;;;;39.47;24.67;;;;;;;-6.75;62.17;94465.16;515532;28;858;-63
2024/01/23 00:02:46;;;;;;;38.40;24.30;;;;;;;-6.69;62.11;94468.88;515487;28;787;-64
2024/01/23 00:03:01;;;;;;;38.10;23.97;;;;;;;-6.65;61.75;94466.88;515434;28;798;-64
2024/01/23 00:03:17;;;;;;;37.97;24.48;;;;;;;-6.62;61.58;94471.41;515528;28;799;-64
2024/01/23 00:03:33;;;;;;;39.67;25.17;;;;;;;-6.60;61.38;94467.13;515512;28;830;-64
2024/01/23 00:03:48;;;;;;;39.60;24.23;;;;;;;-6.56;61.55;94467.81;515754;28;1969;-64
2024/01/23 00:04:04;;;;;;;39.63;24.25;;;;;;;-6.52;61.12;94465.81;515846;28;948;-64
2024/01/23 00:04:19;;;;;;;40.43;24.93;;;;;;;-6.50;61.06;94466.19;515941;28;806;-64
2024/01/23 00:04:35;;;;;;;44.30;26.42;;;;;;;-6.48;60.94;94468.44;515784;28;1198;-64
2024/01/23 00:04:50;;;;;;;44.17;26.20;;;;;;;-6.47;61.23;94468.03;515844;28;917;-64
2024/01/23 00:05:06;;;;;;;45.25;26.42;;;;;;;-6.45;61.08;94464.91;515945;28;861;-64
2024/01/23 00:05:21;;;;;;;47.65;27.15;;;;;;;-6.44;61.11;94464.53;515866;28;814;-64
2024/01/23 00:05:37;;;;;;;43.13;25.73;;;;;;;-6.43;60.85;94455.28;515867;28;767;-64
2024/01/23 00:05:52;;;;;;;42.53;25.98;;;;;;;-6.46;60.54;94461.50;515770;28;854;-64
2024/01/23 00:06:08;;;;;;;45.60;26.73;;;;;;;-6.51;60.70;94472.72;515950;28;775;-63
2024/01/23 00:06:23;;;;;;;45.00;26.50;;;;;;;-6.56;60.85;94462.44;515876;28;836;-64
2024/01/23 00:06:39;;;;;;;46.35;28.17;;;;;;;-6.56;60.61;94469.78;515919;28;944;-64
2024/01/23 00:06:54;;;;;;;51.00;29.30;;;;;;;-6.55;60.88;94469.34;513599;28;1606;-63
2024/01/23 00:07:09;;;;;;;48.92;28.77;;;;;;;-6.52;60.62;94465.09;513671;28;807;-64
2024/01/23 00:07:25;;;;;;;44.37;26.93;;;;;;;-6.51;61.07;94470.03;513682;28;782;-64
2024/01/23 00:07:40;;;;;;;47.08;28.13;;;;;;;-6.48;60.64;94471.91;513762;28;807;-64
2024/01/23 00:07:56;;;;;;;47.10;28.93;;;;;;;-6.47;60.61;94462.66;513694;28;822;-64
2024/01/23 00:08:11;;;;;;;45.55;26.35;;;;;;;-6.44;60.51;94472.59;513655;28;783;-64
2024/01/23 00:08:27;;;;;;;44.10;25.07;;;;;;;-6.46;60.46;94464.19;513709;28;870;-64
2024/01/23 00:08:42;;;;;;;38.03;23.98;;;;;;;-6.50;60.75;94470.78;513988;28;902;-64
2024/01/23 00:08:58;;;;;;;36.20;21.20;;;;;;;-6.49;60.54;94467.69;515828;28;902;-64
2024/01/23 00:09:13;;;;;;;37.65;19.80;;;;;;;-6.49;60.46;94459.63;515886;28;901;-64
2024/01/23 00:09:29;;;;;;;33.37;18.10;;;;;;;-6.47;60.75;94469.94;515914;28;873;-64
2024/01/23 00:09:44;;;;;;;26.52;15.35;;;;;;;-6.44;60.76;94469.13;515838;28;925;-63
2024/01/23 00:10:00;;;;;;;22.40;13.67;;;;;;;-6.44;60.52;94466.44;515824;28;818;-64
2024/01/23 00:10:15;;;;;;;21.10;13.07;;;;;;;-6.44;60.38;94472.59;515913;28;798;-63
2024/01/23 00:10:31;;;;;;;21.80;12.80;;;;;;;-6.58;60.31;94442.56;515853;28;814;-64
2024/01/23 00:10:46;;;;;;;21.30;12.07;;;;;;;-6.41;60.48;94469.03;515860;28;905;-64
2024/01/23 00:11:02;;;;;;;20.13;11.88;;;;;;;-6.42;60.50;94456.81;515875;28;811;-64
2024/01/23 00:11:17;;;;;;;19.50;11.80;;;;;;;-6.41;60.48;94465.63;515846;28;794;-64
2024/01/23 00:11:33;;;;;;;20.15;11.70;;;;;;;-6.41;60.66;94462.94;515801;28;881;-64
2024/01/23 00:11:48;;;;;;;20.67;11.93;;;;;;;-6.43;60.50;94460.66;515884;28;1065;-64
2024/01/23 00:12:05;;;;;;;19.87;11.80;;;;;;;-6.42;60.79;94467.53;515856;28;801;-64
2024/01/23 00:12:20;;;;;;;20.65;12.02;;;;;;;-6.42;60.67;94456.03;515853;28;881;-64
2024/01/23 00:12:36;;;;;;;22.15;12.70;;;;;;;-6.40;60.46;94459.81;515863;28;822;-64
2024/01/23 00:12:51;;;;;;;19.80;12.17;;;;;;;-6.39;60.47;94457.91;515787;28;815;-64
2024/01/23 00:13:07;;;;;;;17.50;11.85;;;;;;;-6.39;60.91;94455.94;515915;28;810;-64
2024/01/23 00:13:22;;;;;;;17.57;11.63;;;;;;;-6.39;60.31;94458.63;515784;28;810;-64
2024/01/23 00:13:38;;;;;;;18.23;11.82;;;;;;;-6.44;60.28;94455.69;515898;28;1016;-64
2024/01/23 00:13:53;;;;;;;18.80;12.57;;;;;;;-6.45;59.79;94457.63;515814;28;826;-64
2024/01/23 00:14:09;;;;;;;22.20;14.82;;;;;;;-6.43;60.12;94460.66;515895;28;802;-64
2024/01/23 00:14:24;;;;;;;29.17;17.53;;;;;;;-6.44;60.12;94459.16;515863;28;877;-64
2024/01/23 00:14:40;;;;;;;30.23;18.35;;;;;;;-6.47;60.28;94454.59;515873;28;877;-64
2024/01/23 00:14:57;;;;;;;32.37;18.60;;;;;;;-6.57;59.94;94462.88;515780;28;845;-64
2024/01/23 00:15:13;;;;;;;36.60;18.85;;;;;;;-6.63;60.13;94451.88;515903;28;842;-64
2024/01/23 00:15:29;;;;;;;34.20;17.75;;;;;;;-6.62;60.24;94453.38;515821;28;928;-63
2024/01/23 00:15:44;;;;;;;30.00;17.47;;;;;;;-6.61;60.11;94454.91;515875;28;833;-64
2024/01/23 00:16:00;;;;;;;31.75;18.90;;;;;;;-6.59;60.14;94457.94;515789;28;1158;-64
2024/01/23 00:16:16;;;;;;;34.28;20.88;;;;;;;-6.58;60.31;94459.44;515861;28;833;-64
2024/01/23 00:16:31;;;;;;;36.40;22.33;;;;;;;-6.57;60.39;94455.59;515846;28;850;-64
2024/01/23 00:16:46;;;;;;;36.22;22.67;;;;;;;-6.63;60.41;94451.88;515897;28;779;-64
2024/01/23 00:17:02;;;;;;;35.17;22.70;;;;;;;-6.66;60.31;94458.06;515831;28;826;-64
2024/01/23 00:17:17;;;;;;;37.90;22.95;;;;;;;-6.68;60.35;94452.34;515881;28;925;-64
2024/01/23 00:17:33;;;;;;;41.53;23.70;;;;;;;-6.72;60.63;94448.22;515798;28;791;-64
2024/01/23 00:17:48;;;;;;;42.53;23.70;;;;;;;-6.67;60.44;94451.16;515864;28;878;-64
2024/01/23 00:18:06;;;;;;;39.97;23.53;;;;;;;-6.64;60.63;94453.03;515803;28;862;-64
2024/01/23 00:18:21;;;;;;;46.08;26.92;;;;;;;-6.60;60.08;94452.94;515655;28;853;-64
2024/01/23 00:18:38;;;;;;;46.37;27.80;;;;;;;-6.60;60.37;94445.66;515879;28;904;-64
2024/01/23 00:18:53;;;;;;;45.10;26.98;;;;;;;-6.55;60.14;94458.59;515817;28;847;-64
2024/01/23 00:19:08;;;;;;;45.33;26.65;;;;;;;-6.52;59.91;94452.38;515937;28;884;-64
2024/01/23 00:19:24;;;;;;;45.03;27.53;;;;;;;-6.52;59.85;94446.28;515788;28;759;-64
2024/01/23 00:19:39;;;;;;;48.78;27.67;;;;;;;-6.61;60.49;94454.91;515832;28;850;-64
2024/01/23 00:19:55;;;;;;;46.50;26.80;;;;;;;-6.71;60.22;94455.13;515753;28;921;-64
2024/01/23 00:20:11;;;;;;;41.55;26.35;;;;;;;-6.78;60.43;94450.66;513697;28;874;-64
2024/01/23 00:20:26;;;;;;;47.10;28.85;;;;;;;-6.81;60.61;94453.38;513745;28;794;-64
2024/01/23 00:20:42;;;;;;;54.80;31.93;;;;;;;-6.84;60.91;94446.91;513698;28;815;-64
2024/01/23 00:20:57;;;;;;;49.88;30.50;;;;;;;-6.75;60.69;94454.41;513635;28;779;-64
2024/01/23 00:21:13;;;;;;;46.05;29.90;;;;;;;-6.74;60.65;94456.69;513604;28;815;-64
2024/01/23 00:21:29;;;;;;;53.07;32.60;;;;;;;-6.72;60.74;94446.31;513622;28;802;-64
2024/01/23 00:21:44;;;;;;;57.35;33.15;;;;;;;-6.66;60.87;94454.63;513661;28;807;-64
2024/01/23 00:22:00;;;;;;;54.23;31.87;;;;;;;-6.63;61.08;94457.25;514101;28;807;-64
2024/01/23 00:22:15;;;;;;;52.45;31.13;;;;;;;-6.59;61.36;94455.25;515872;28;941;-64
2024/01/23 00:22:31;;;;;;;52.50;31.10;;;;;;;-6.58;61.71;94451.38;515806;28;873;-64
2024/01/23 00:22:46;;;;;;;54.88;32.50;;;;;;;-6.55;61.38;94457.84;515784;28;834;-64
2024/01/23 00:23:02;;;;;;;50.43;30.97;;;;;;;-6.52;61.49;94454.34;515857;28;802;-64
2024/01/23 00:23:17;;;;;;;45.42;28.48;;;;;;;-6.49;61.48;94450.81;515871;28;874;-64
2024/01/23 00:23:32;;;;;;;50.10;28.70;;;;;;;-6.48;61.46;94452.34;515791;28;849;-64
2024/01/23 00:23:48;;;;;;;54.03;29.00;;;;;;;-6.47;61.82;94454.59;515660;28;1938;-63
2024/01/23 00:24:04;;;;;;;54.43;30.30;;;;;;;-6.47;61.04;94454.59;515836;28;854;-64
2024/01/23 00:24:19;;;;;;;52.58;31.95;;;;;;;-6.48;61.51;94452.34;515859;28;898;-64
2024/01/23 00:24:35;;;;;;;55.20;32.92;;;;;;;-6.50;61.26;94447.38;515864;28;795;-64
2024/01/23 00:24:50;;;;;;;60.93;33.93;;;;;;;-6.48;60.91;94457.72;515757;28;869;-64
2024/01/23 00:25:06;;;;;;;59.75;34.22;;;;;;;-6.46;60.69;94450.00;515844;28;807;-64
2024/01/23 00:25:21;;;;;;;60.40;35.10;;;;;;;-6.45;60.30;94446.88;515830;28;811;-64
2024/01/23 00:25:37;;;;;;;63.35;36.35;;;;;;;-6.40;60.43;94456.38;515871;28;794;-64
2024/01/23 00:25:53;;;;;;;62.37;35.93;;;;;;;-6.40;60.28;94457.13;515744;28;867;-64
2024/01/23 00:26:08;;;;;;;60.55;34.90;;;;;;;-6.38;60.17;94456.72;515881;28;823;-64
2024/01/23 00:26:24;;;;;;;57.95;34.13;;;;;;;-6.38;59.93;94454.78;515766;28;795;-64
2024/01/23 00:26:39;;;;;;;58.27;33.97;;;;;;;-6.37;59.72;94450.19;515772;28;810;-64
2024/01/23 00:26:55;;;;;;;60.17;33.70;;;;;;;-6.36;60.38;94447.06;515759;28;886;-64
2024/01/23 00:27:10;;;;;;;58.77;33.13;;;;;;;-6.33;60.12;94454.31;515880;28;795;-64
2024/01/23 00:27:26;;;;;;;58.80;33.30;;;;;;;-6.32;59.64;94453.13;515854;28;854;-63
2024/01/23 00:27:41;;;;;;;65.27;35.43;;;;;;;-6.30;59.94;94444.63;515791;28;774;-64
2024/01/23 00:27:57;;;;;;;61.53;35.42;;;;;;;-6.52;59.50;94416.75;515718;28;1649;-64
2024/01/23 00:28:13;;;;;;;57.03;34.47;;;;;;;-6.27;59.58;94446.50;515844;28;881;-64
2024/01/23 00:28:29;;;;;;;56.30;33.42;;;;;;;-6.27;59.41;94447.28;515788;28;991;-64
2024/01/23 00:28:44;;;;;;;53.53;32.60;;;;;;;-6.26;59.89;94453.41;515806;28;909;-64
2024/01/23 00:29:00;;;;;;;57.30;33.25;;;;;;;-6.25;59.79;94450.28;515832;28;799;-64
2024/01/23 00:29:15;;;;;;;59.95;33.10;;;;;;;-6.23;59.30;94460.63;515731;28;799;-64
2024/01/23 00:29:33;;;;;;;57.73;32.37;;;;;;;-6.25;59.90;94454.91;515803;28;846;-64
2024/01/23 00:29:48;;;;;;;55.50;32.20;;;;;;;-6.26;59.69;94448.03;515818;28;938;-64
2024/01/23 00:30:04;;;;;;;52.50;32.38;;;;;;;-6.44;59.19;94429.59;515782;28;883;-64
2024/01/23 00:30:20;;;;;;;50.35;32.20;;;;;;;-6.33;59.41;94454.31;515781;28;862;-64
2024/01/23 00:30:35;;;;;;;51.28;31.50;;;;;;;-6.36;59.29;94451.69;515811;28;913;-64
2024/01/23 00:30:51;;;;;;;53.07;31.53;;;;;;;-6.40;59.18;94449.09;515687;28;814;-64
2024/01/23 00:31:06;;;;;;;56.50;31.60;;;;;;;-6.42;59.49;94447.97;515880;28;885;-64
2024/01/23 00:31:22;;;;;;;56.83;31.77;;;;;;;-6.45;59.53;94449.56;515802;28;830;-63
2024/01/23 00:31:37;;;;;;;54.05;32.42;;;;;;;-6.45;59.64;94452.25;515865;28;834;-64
2024/01/23 00:31:53;;;;;;;57.30;32.20;;;;;;;-6.47;59.86;94451.16;515736;28;771;-64
2024/01/23 00:32:08;;;;;;;58.85;32.05;;;;;;;-6.51;59.37;94447.78;515760;28;846;-64
2024/01/23 00:32:28;;;;;;;58.83;33.53;;;;;;;-6.53;59.36;94453.56;515754;28;842;-64
2024/01/23 00:32:43;;;;;;;54.67;32.72;;;;;;;-6.57;59.68;94452.91;515713;28;1031;-64
2024/01/23 00:32:59;;;;;;;54.58;32.30;;;;;;;-6.56;59.56;94445.59;513596;28;940;-64
2024/01/23 00:33:15;;;;;;;55.50;32.57;;;;;;;-6.55;60.01;94447.88;513689;28;854;-64
2024/01/23 00:33:30;;;;;;;53.60;32.23;;;;;;;-6.54;59.78;94444.00;513535;28;846;-64
2024/01/23 00:33:46;;;;;;;58.70;33.87;;;;;;;-6.52;59.80;94447.03;513511;28;2425;-64
2024/01/23 00:34:01;;;;;;;57.53;35.40;;;;;;;-6.49;59.74;94446.19;513608;28;858;-64
2024/01/23 00:34:17;;;;;;;53.67;33.80;;;;;;;-6.47;59.53;94437.72;513687;28;818;-64
2024/01/23 00:34:32;;;;;;;56.80;34.35;;;;;;;-6.47;59.69;94441.16;513637;28;1085;-64
2024/01/23 00:34:47;;;;;;;55.67;34.73;;;;;;;-6.45;59.73;94448.81;513905;28;838;-64
2024/01/23 00:35:03;;;;;;;54.45;34.08;;;;;;;-6.45;59.75;94443.44;515662;28;895;-64
2024/01/23 00:35:19;;;;;;;56.38;34.25;;;;;;;-6.45;60.04;94444.19;515698;28;889;-64
2024/01/23 00:35:34;;;;;;;54.17;34.00;;;;;;;-6.44;59.77;94444.94;515665;28;834;-64
2024/01/23 00:35:50;;;;;;;60.42;35.08;;;;;;;-6.46;59.91;94445.38;515738;28;917;-64
2024/01/23 00:36:05;;;;;;;63.67;35.57;;;;;;;-6.45;59.53;94446.13;515857;28;786;-64
2024/01/23 00:36:21;;;;;;;63.35;36.63;;;;;;;-6.46;59.47;94444.63;515776;28;830;-64
2024/01/23 00:36:37;;;;;;;65.05;37.75;;;;;;;-6.47;59.66;94443.09;515763;28;941;-64
2024/01/23 00:36:53;;;;;;;66.57;36.40;;;;;;;-6.46;59.88;94444.63;515716;28;882;-64
2024/01/23 00:37:09;;;;;;;63.08;34.42;;;;;;;-6.46;59.68;94444.63;515874;28;826;-64
2024/01/23 00:37:25;;;;;;;62.35;34.10;;;;;;;-6.49;59.59;94438.13;515752;28;887;-64
2024/01/23 00:37:40;;;;;;;60.63;33.17;;;;;;;-6.45;59.66;94446.88;515724;28;910;-64
2024/01/23 00:37:56;;;;;;;55.33;32.00;;;;;;;-6.45;59.70;94444.19;515784;28;865;-64
2024/01/23 00:38:11;;;;;;;50.22;30.42;;;;;;;-6.45;59.21;94451.47;515780;28;814;-64
2024/01/23 00:38:27;;;;;;;48.57;29.07;;;;;;;-6.48;59.53;94436.22;515804;28;771;-64
2024/01/23 00:38:42;;;;;;;48.50;27.92;;;;;;;-6.45;59.45;94441.50;515745;28;826;-64
2024/01/23 00:38:58;;;;;;;46.17;26.67;;;;;;;-6.45;59.30;94446.13;515717;28;798;-64
2024/01/23 00:39:14;;;;;;;44.47;26.75;;;;;;;-6.48;59.36;94446.97;515825;28;889;-64
2024/01/23 00:39:29;;;;;;;42.73;26.53;;;;;;;-6.50;59.99;94439.31;515886;28;813;-64
2024/01/23 00:39:45;;;;;;;42.05;25.60;;;;;;;-6.53;59.64;94440.16;515743;28;1043;-64
2024/01/23 00:40:02;;;;;;;41.45;24.10;;;;;;;-6.57;59.75;94444.84;515823;28;853;-64
2024/01/23 00:40:18;;;;;;;39.22;23.58;;;;;;;-6.58;59.56;94445.25;515781;28;929;-64
2024/01/23 00:40:33;;;;;;;40.28;24.70;;;;;;;-6.58;59.86;94435.25;515742;28;779;-64
2024/01/23 00:40:49;;;;;;;37.67;23.50;;;;;;;-6.63;60.03;94449.19;515735;28;936;-64
2024/01/23 00:41:04;;;;;;;35.97;21.65;;;;;;;-6.66;59.89;94447.31;515879;28;841;-64
2024/01/23 00:41:20;;;;;;;36.37;21.63;;;;;;;-6.73;59.92;94442.09;515791;28;818;-64
2024/01/23 00:41:35;;;;;;;35.03;21.75;;;;;;;-6.79;59.92;94446.44;515844;28;882;-64
2024/01/23 00:41:51;;;;;;;37.43;21.37;;;;;;;-6.88;60.15;94446.22;515680;28;1096;-64
2024/01/23 00:42:07;;;;;;;37.92;21.55;;;;;;;-6.96;59.85;94448.31;515858;28;815;-64
2024/01/23 00:42:23;;;;;;;37.33;21.80;;;;;;;-7.02;59.99;94447.25;515709;28;985;-64
2024/01/23 00:42:38;;;;;;;41.08;22.65;;;;;;;-7.05;60.23;94441.94;515840;28;889;-64
2024/01/23 00:42:54;;;;;;;40.13;22.03;;;;;;;-7.09;59.81;94444.72;515670;28;853;-64
2024/01/23 00:43:11;;;;;;;38.97;21.35;;;;;;;-7.14;60.34;94447.88;515793;28;913;-64
2024/01/23 00:43:27;;;;;;;39.83;21.60;;;;;;;-7.18;60.30;94443.72;515859;28;881;-64
2024/01/23 00:43:43;;;;;;;38.55;21.52;;;;;;;-7.22;60.43;94437.66;515660;28;858;-64
2024/01/23 00:43:58;;;;;;;36.38;20.80;;;;;;;-7.23;60.45;94439.59;515712;28;1962;-64
2024/01/23 00:44:13;;;;;;;34.87;19.93;;;;;;;-7.28;60.32;94442.00;515819;28;791;-64
2024/01/23 00:44:29;;;;;;;35.42;19.98;;;;;;;-7.33;60.29;94445.16;515783;28;874;-64
2024/01/23 00:44:47;;;;;;;38.87;21.17;;;;;;;-7.44;60.40;94437.28;515719;28;846;-64
2024/01/23 00:45:03;;;;;;;44.97;24.08;;;;;;;-7.47;60.57;94440.78;515770;28;1000;-64
2024/01/23 00:45:19;;;;;;;43.15;24.20;;;;;;;-7.49;60.75;94443.13;515899;28;921;-64
2024/01/23 00:45:34;;;;;;;39.70;21.95;;;;;;;-7.49;60.72;94437.03;515759;28;803;-64
2024/01/23 00:45:50;;;;;;;38.43;22.20;;;;;;;-7.52;60.59;94440.50;515715;28;787;-64
2024/01/23 00:46:05;;;;;;;41.63;24.30;;;;;;;-7.53;60.96;94434.38;515806;28;906;-64
2024/01/23 00:46:21;;;;;;;43.60;24.77;;;;;;;-7.50;60.91;94438.19;515759;28;850;-64
2024/01/23 00:46:36;;;;;;;40.83;23.07;;;;;;;-7.48;61.08;94436.59;515882;28;830;-64
2024/01/23 00:46:52;;;;;;;43.03;22.63;;;;;;;-7.43;60.90;94438.06;515749;28;846;-64
2024/01/23 00:47:07;;;;;;;43.77;23.00;;;;;;;-7.42;61.10;94437.63;515822;28;787;-64
2024/01/23 00:47:23;;;;;;;41.20;22.85;;;;;;;-7.39;60.84;94439.50;515763;28;850;-64
2024/01/23 00:47:38;;;;;;;41.50;22.07;;;;;;;-7.39;61.11;94433.38;515825;28;834;-64
2024/01/23 00:47:54;;;;;;;41.60;21.60;;;;;;;-7.43;61.00;94433.47;515702;28;850;-64
2024/01/23 00:48:09;;;;;;;42.30;23.97;;;;;;;-7.48;60.95;94433.16;515889;28;758;-64
2024/01/23 00:48:25;;;;;;;46.28;26.20;;;;;;;-7.47;61.32;94438.09;515751;28;814;-64
2024/01/23 00:48:40;;;;;;;45.97;24.97;;;;;;;-7.48;61.68;94433.16;515741;28;807;-64
2024/01/23 00:48:55;;;;;;;44.63;23.65;;;;;;;-7.49;61.54;94434.34;515816;28;938;-64
2024/01/23 00:49:11;;;;;;;46.67;24.07;;;;;;;-7.50;61.72;94438.94;515811;28;791;-64
2024/01/23 00:49:27;;;;;;;45.80;24.08;;;;;;;-7.50;61.78;94435.50;515857;28;850;-64
2024/01/23 00:49:42;;;;;;;44.60;23.67;;;;;;;-7.49;61.96;94437.75;515782;28;795;-64
2024/01/23 00:49:57;;;;;;;42.85;23.05;;;;;;;-7.48;61.80;94439.28;515810;28;815;-64
2024/01/23 00:50:13;;;;;;;38.73;22.03;;;;;;;-7.44;61.93;94431.16;515715;28;871;-63
2024/01/23 00:50:28;;;;;;;38.30;21.88;;;;;;;-7.42;61.82;94436.88;515811;28;869;-64
2024/01/23 00:50:44;;;;;;;36.47;21.57;;;;;;;-7.39;61.67;94436.06;515743;28;937;-64
2024/01/23 00:50:59;;;;;;;40.38;22.20;;;;;;;-7.35;61.84;94428.72;515793;28;929;-64
2024/01/23 00:51:14;;;;;;;42.87;22.67;;;;;;;-7.31;61.67;94434.75;515783;28;821;-64
2024/01/23 00:51:30;;;;;;;37.90;23.00;;;;;;;-7.29;61.84;94433.19;515747;28;998;-64
2024/01/23 00:51:45;;;;;;;37.85;23.45;;;;;;;-7.25;61.81;94431.19;515779;28;874;-63
2024/01/23 00:52:01;;;;;;;37.33;22.90;;;;;;;-7.22;61.74;94438.44;515800;28;887;-64
2024/01/23 00:52:16;;;;;;;37.97;22.35;;;;;;;-7.18;61.95;94433.00;515838;28;873;-64
2024/01/23 00:52:32;;;;;;;35.37;20.63;;;;;;;-7.16;61.56;94431.41;515789;28;949;-64
2024/01/23 00:52:47;;;;;;;32.67;19.20;;;;;;;-7.13;61.55;94437.91;515645;28;806;-64
2024/01/23 00:53:03;;;;;;;37.17;19.53;;;;;;;-7.10;61.63;94431.69;515773;28;862;-64
2024/01/23 00:53:18;;;;;;;35.85;19.40;;;;;;;-7.11;61.52;94433.63;515874;28;810;-64
2024/01/23 00:53:37;;;;;;;32.80;19.57;;;;;;;-7.15;61.26;94432.19;515726;28;770;-64
2024/01/23 00:53:52;;;;;;;35.33;20.30;;;;;;;-7.17;61.40;94431.84;515715;28;819;-64
2024/01/23 00:54:08;;;;;;;35.00;20.47;;;;;;;-7.16;61.31;94425.28;515805;28;893;-64
2024/01/23 00:54:23;;;;;;;37.90;21.13;;;;;;;-7.15;61.13;94429.50;515684;28;795;-64
2024/01/23 00:54:39;;;;;;;37.97;20.77;;;;;;;-7.12;61.18;94428.66;515774;28;909;-64
2024/01/23 00:54:58;;;;;;;37.40;20.83;;;;;;;-7.10;61.11;94429.75;515641;28;926;-64
2024/01/23 00:55:29;;;;;;;39.35;22.05;;;;;;;-7.06;60.92;94430.44;515775;28;882;-64
2024/01/23 00:55:44;;;;;;;36.22;21.00;;;;;;;-7.09;60.63;94422.47;515628;28;846;-63
2024/01/23 00:56:00;;;;;;;35.97;21.83;;;;;;;-7.16;60.69;94422.59;513518;28;2635;-64
2024/01/23 00:56:15;;;;;;;37.13;22.37;;;;;;;-7.27;60.94;94425.50;513617;28;791;-64
2024/01/23 00:56:31;;;;;;;38.33;21.70;;;;;;;-7.36;61.03;94421.84;513531;28;1107;-64
2024/01/23 00:56:46;;;;;;;39.53;22.57;;;;;;;-7.39;61.07;94430.69;513619;28;878;-64
2024/01/23 00:57:05;;;;;;;37.20;22.30;;;;;;;-7.37;61.08;94423.00;513430;28;1234;-64
2024/01/23 00:57:20;;;;;;;33.42;20.65;;;;;;;-7.33;61.17;94429.81;513647;28;831;-64
2024/01/23 00:57:35;;;;;;;33.88;20.42;;;;;;;-7.30;61.39;94423.66;513578;28;882;-64
2024/01/23 00:57:51;;;;;;;34.87;20.57;;;;;;;-7.27;61.17;94419.34;514295;28;842;-64
2024/01/23 00:58:06;;;;;;;36.07;20.90;;;;;;;-7.22;61.30;94429.63;515812;28;826;-64
2024/01/23 00:58:22;;;;;;;35.92;22.10;;;;;;;-7.22;61.13;94421.56;515677;28;775;-63
2024/01/23 00:58:38;;;;;;;43.88;23.27;;;;;;;-7.21;60.92;94420.41;515675;28;984;-64
2024/01/23 00:58:53;;;;;;;45.85;23.38;;;;;;;-7.17;61.16;94415.75;515694;28;806;-64
2024/01/23 00:59:11;;;;;;;37.57;22.97;;;;;;;-7.14;61.21;94428.31;515857;28;815;-64
2024/01/23 00:59:27;;;;;;;45.45;23.73;;;;;;;-7.12;60.74;94415.25;515798;28;973;-64
2024/01/23 00:59:42;;;;;;;51.67;25.13;;;;;;;-7.08;60.89;94418.63;515733;28;795;-64
2024/01/23 00:59:58;;;;;;;51.47;27.27;;;;;;;-7.05;60.72;94420.47;515701;28;791;-64
2024/01/23 01:00:14;;;;;;;52.03;30.03;;;;;;;-7.02;60.50;94416.97;515815;28;1008;-64
2024/01/23 01:00:29;;;;;;;47.45;29.85;;;;;;;-7.00;60.48;94414.66;515758;28;787;-64
2024/01/23 01:00:44;;;;;;;46.20;29.13;;;;;;;-6.99;60.61;94413.47;515735;28;867;-64
2024/01/23 01:01:00;;;;;;;51.40;29.93;;;;;;;-6.95;60.41;94414.13;515778;28;889;-64
2024/01/23 01:01:15;;;;;;;49.95;28.83;;;;;;;-6.92;60.21;94416.00;515643;28;886;-64
2024/01/23 01:01:31;;;;;;;46.47;28.43;;;;;;;-6.91;60.24;94414.84;515795;28;855;-64
2024/01/23 01:01:46;;;;;;;47.10;28.13;;;;;;;-6.89;59.81;94419.81;515709;28;944;-64
2024/01/23 01:02:02;;;;;;;48.57;28.43;;;;;;;-6.88;60.08;94411.31;515783;28;826;-64
2024/01/23 01:02:18;;;;;;;45.50;28.60;;;;;;;-6.86;60.06;94411.66;515761;28;910;-63
2024/01/23 01:02:33;;;;;;;46.20;28.00;;;;;;;-6.84;59.77;94406.63;515695;28;815;-64
2024/01/23 01:02:49;;;;;;;48.17;28.47;;;;;;;-6.84;59.83;94403.94;515751;28;798;-64
2024/01/23 01:03:04;;;;;;;42.40;27.50;;;;;;;-6.81;59.83;94407.75;515704;28;842;-64
2024/01/23 01:03:20;;;;;;;43.00;27.50;;;;;;;-6.80;59.48;94409.28;515784;28;787;-64
2024/01/23 01:03:35;;;;;;;49.70;28.13;;;;;;;-6.80;59.38;94404.66;515830;28;803;-64
2024/01/23 01:03:50;;;;;;;50.37;28.37;;;;;;;-6.78;59.61;94406.91;515473;28;1922;-63
2024/01/23 01:04:06;;;;;;;49.13;29.08;;;;;;;-6.76;59.22;94407.25;515762;28;965;-64
2024/01/23 01:04:21;;;;;;;47.23;27.70;;;;;;;-6.76;59.57;94410.72;515785;28;826;-64
2024/01/23 01:04:37;;;;;;;45.33;26.83;;;;;;;-6.75;59.41;94406.06;515744;28;1324;-64
2024/01/23 01:04:52;;;;;;;45.57;26.27;;;;;;;-6.74;59.49;94405.69;515678;28;779;-64
2024/01/23 01:05:08;;;;;;;41.90;26.07;;;;;;;-6.74;59.27;94405.69;515834;28;771;-64
2024/01/23 01:05:23;;;;;;;43.95;28.20;;;;;;;-6.73;59.67;94404.50;515706;28;807;-63
2024/01/23 01:05:39;;;;;;;46.45;27.77;;;;;;;-6.73;59.55;94409.88;515845;28;862;-64
2024/01/23 01:05:54;;;;;;;45.83;27.70;;;;;;;-6.71;59.80;94409.47;515706;28;841;-64
2024/01/23 01:06:10;;;;;;;47.50;28.87;;;;;;;-6.72;59.98;94411.41;515813;28;873;-64
2024/01/23 01:06:25;;;;;;;48.70;29.37;;;;;;;-6.69;59.72;94409.81;515744;28;882;-64
2024/01/23 01:06:40;;;;;;;48.07;29.30;;;;;;;-6.69;59.64;94409.81;515763;28;834;-64
2024/01/23 01:06:56;;;;;;;45.97;29.27;;;;;;;-6.69;59.66;94407.84;515722;28;917;-64
2024/01/23 01:07:11;;;;;;;47.73;28.80;;;;;;;-6.68;59.61;94401.34;515816;28;767;-64
2024/01/23 01:07:27;;;;;;;50.22;27.48;;;;;;;-6.68;59.41;94406.69;515834;28;877;-64
2024/01/23 01:07:43;;;;;;;46.07;27.07;;;;;;;-6.69;59.49;94404.44;515748;28;775;-64
2024/01/23 01:07:59;;;;;;;42.58;26.60;;;;;;;-6.69;59.28;94401.75;515761;28;917;-64
2024/01/23 01:08:15;;;;;;;47.03;27.02;;;;;;;-6.93;59.20;94370.81;515697;28;877;-64
2024/01/23 01:08:30;;;;;;;46.90;26.87;;;;;;;-6.68;59.45;94414.00;515794;28;873;-64
2024/01/23 01:08:46;;;;;;;45.08;26.50;;;;;;;-6.69;59.51;94407.84;515687;28;921;-63
2024/01/23 01:09:02;;;;;;;47.23;26.53;;;;;;;-6.68;59.63;94405.94;515704;28;826;-64
2024/01/23 01:09:18;;;;;;;46.60;25.35;;;;;;;-6.70;59.65;94405.59;515726;28;882;-64
2024/01/23 01:09:33;;;;;;;43.90;25.30;;;;;;;-6.78;59.66;94405.00;515646;28;834;-63
2024/01/23 01:09:48;;;;;;;43.17;25.50;;;;;;;-6.82;59.68;94404.28;515789;28;854;-64
2024/01/23 01:10:04;;;;;;;43.53;24.70;;;;;;;-7.12;59.42;94369.63;515762;28;941;-64
2024/01/23 01:10:20;;;;;;;41.63;24.60;;;;;;;-6.88;59.75;94408.63;515677;28;891;-64
2024/01/23 01:10:35;;;;;;;40.13;24.70;;;;;;;-6.91;59.62;94408.72;515820;28;865;-64
2024/01/23 01:10:51;;;;;;;41.00;24.67;;;;;;;-6.93;59.46;94411.81;515614;28;854;-64
2024/01/23 01:11:07;;;;;;;37.88;23.55;;;;;;;-6.93;59.83;94411.81;515829;28;806;-64
2024/01/23 01:11:22;;;;;;;38.20;23.20;;;;;;;-6.96;60.04;94410.72;515772;28;980;-64
2024/01/23 01:11:38;;;;;;;39.78;22.52;;;;;;;-6.95;60.02;94406.09;515803;28;854;-64
2024/01/23 01:11:53;;;;;;;42.27;23.30;;;;;;;-6.95;59.92;94409.53;515709;28;775;-64
2024/01/23 01:12:08;;;;;;;38.80;23.10;;;;;;;-6.97;59.94;94408.44;515820;28;907;-64
2024/01/23 01:12:24;;;;;;;34.63;21.17;;;;;;;-7.03;59.86;94418.13;515663;28;838;-64
2024/01/23 01:12:39;;;;;;;35.33;21.25;;;;;;;-7.10;60.12;94405.63;513620;28;815;-64
2024/01/23 01:12:55;;;;;;;36.03;21.50;;;;;;;-7.13;60.62;94416.44;513528;28;799;-64
2024/01/23 01:13:10;;;;;;;34.85;20.30;;;;;;;-7.16;60.27;94414.56;513632;28;1073;-64
2024/01/23 01:13:26;;;;;;;32.47;18.60;;;;;;;-7.18;60.20;94412.28;513654;28;790;-64
2024/01/23 01:13:41;;;;;;;28.85;17.48;;;;;;;-7.22;60.07;94406.25;513533;28;785;-64
2024/01/23 01:13:58;;;;;;;28.60;16.73;;;;;;;-7.31;60.19;94408.69;513488;28;865;-64
2024/01/23 01:14:14;;;;;;;29.42;15.90;;;;;;;-7.42;60.13;94410.06;513632;28;851;-63
2024/01/23 01:14:29;;;;;;;26.70;15.35;;;;;;;-7.45;60.42;94402.84;514244;28;858;-64
2024/01/23 01:14:45;;;;;;;25.73;14.73;;;;;;;-7.48;60.54;94407.09;515508;28;775;-63